Time;durP1;ratioP1;P1;durP2;ratioP2;P2;SDS_P1;SDS_P2;PMS_P1;PMS_P2;Temp;Humidity;BMP_temperature;BMP_pressure;BME280_temperature;BME280_humidity;BME280_pressure;Samples;Min_cycle;Max_cycle;Signal;HPM_P1;HPM_P2
2021/05/29 00:01:48;;;;;;;3.83;2.20;;;12.90;99.90;;;;;;4963936;28;20043;-85
2021/05/29 00:04:13;;;;;;;4.45;2.17;;;12.80;99.90;;;;;;4963496;28;20494;-86
2021/05/29 00:06:39;;;;;;;4.43;2.30;;;12.80;99.90;;;;;;4963010;28;20045;-86
2021/05/29 00:09:05;;;;;;;3.58;2.35;;;12.80;99.90;;;;;;4952304;28;20041;-86
2021/05/29 00:11:30;;;;;;;5.55;2.78;;;12.70;99.90;;;;;;4973154;28;20134;-85
2021/05/29 00:13:56;;;;;;;4.88;2.90;;;12.70;99.90;;;;;;4970995;28;20487;-85
2021/05/29 00:16:21;;;;;;;3.55;2.78;;;12.60;99.90;;;;;;4974344;28;20046;-85
2021/05/29 00:18:47;;;;;;;3.63;2.60;;;12.60;99.90;;;;;;4973919;28;20491;-86
2021/05/29 00:21:13;;;;;;;3.90;2.78;;;12.50;99.90;;;;;;4967059;28;20101;-85
2021/05/29 00:23:39;;;;;;;5.47;2.90;;;12.50;99.90;;;;;;4956436;28;20421;-84
2021/05/29 00:26:04;;;;;;;3.92;2.72;;;12.50;99.90;;;;;;4974149;28;20050;-85
2021/05/29 00:28:30;;;;;;;5.38;3.38;;;12.40;99.90;;;;;;4957095;28;20105;-85
2021/05/29 00:30:56;;;;;;;3.55;2.40;;;12.50;99.90;;;;;;4974328;28;20111;-85
2021/05/29 00:33:22;;;;;;;5.15;3.45;;;12.40;99.90;;;;;;4974084;28;20070;-85
2021/05/29 00:35:48;;;;;;;5.18;3.17;;;12.40;99.90;;;;;;4977937;28;20093;-86
2021/05/29 00:38:13;;;;;;;6.20;3.63;;;12.30;99.90;;;;;;4982838;28;20033;-86
2021/05/29 00:40:39;;;;;;;5.20;3.45;;;12.30;99.90;;;;;;4954665;28;20050;-84
2021/05/29 00:43:05;;;;;;;4.88;3.20;;;12.30;99.90;;;;;;4962737;28;20530;-84
2021/05/29 00:45:31;;;;;;;5.50;3.30;;;12.20;99.90;;;;;;4957401;28;20093;-84
2021/05/29 00:48:00;;;;;;;5.82;3.58;;;12.20;99.90;;;;;;4965807;28;20389;-84
2021/05/29 00:50:26;;;;;;;6.70;3.00;;;12.10;99.90;;;;;;4974479;28;20053;-84
2021/05/29 00:52:51;;;;;;;5.47;3.22;;;12.20;99.90;;;;;;4956257;28;20030;-85
2021/05/29 00:55:18;;;;;;;4.55;3.00;;;12.20;99.90;;;;;;4957311;28;20130;-85
2021/05/29 00:57:47;;;;;;;5.75;3.10;;;12.10;99.90;;;;;;4975075;28;20441;-84
2021/05/29 01:00:16;;;;;;;4.93;3.50;;;12.10;99.90;;;;;;4969230;28;20034;-84
2021/05/29 01:02:42;;;;;;;5.38;3.17;;;12.10;99.90;;;;;;4975016;28;20039;-84
2021/05/29 01:05:09;;;;;;;7.50;3.60;;;12.10;99.90;;;;;;4981598;28;20046;-85
2021/05/29 01:07:35;;;;;;;4.63;3.03;;;12.00;99.90;;;;;;4965665;28;20696;-86
2021/05/29 01:10:03;;;;;;;5.78;3.13;;;12.00;99.90;;;;;;4959175;28;20031;-84
2021/05/29 01:12:30;;;;;;;7.13;3.72;;;12.00;99.90;;;;;;4977401;28;20065;-85
2021/05/29 01:14:57;;;;;;;5.97;3.65;;;12.00;99.90;;;;;;4963306;28;20074;-86
2021/05/29 01:17:25;;;;;;;8.07;3.88;;;11.90;99.90;;;;;;4977309;28;20035;-86
2021/05/29 01:19:51;;;;;;;6.47;3.83;;;11.90;99.90;;;;;;4977291;28;20022;-85
2021/05/29 01:22:43;;;;;;;5.25;3.50;;;11.80;99.90;;;;;;4977413;28;20043;-85
2021/05/29 01:25:21;;;;;;;6.35;3.70;;;11.80;99.90;;;;;;4977504;28;20075;-86
2021/05/29 01:28:14;;;;;;;6.22;4.10;;;11.70;99.90;;;;;;4977221;28;20384;-85
2021/05/29 01:30:49;;;;;;;5.80;3.38;;;11.70;99.90;;;;;;4944948;28;20131;-84
2021/05/29 01:33:23;;;;;;;4.43;2.85;;;11.70;99.90;;;;;;4959377;28;20365;-84
2021/05/29 01:35:51;;;;;;;4.80;2.85;;;11.60;99.90;;;;;;4960032;28;20093;-85
2021/05/29 01:38:18;;;;;;;3.92;2.67;;;11.60;99.90;;;;;;4976928;28;20035;-85
2021/05/29 01:40:44;;;;;;;4.80;2.90;;;11.60;99.90;;;;;;4960033;28;20091;-86
2021/05/29 01:43:12;;;;;;;3.95;2.20;;;11.60;99.90;;;;;;4977356;28;20086;-84
2021/05/29 01:45:38;;;;;;;4.85;2.40;;;11.60;99.90;;;;;;4960006;28;20026;-84
2021/05/29 01:48:05;;;;;;;3.05;2.00;;;11.50;99.90;;;;;;4960148;28;20035;-85
2021/05/29 01:50:32;;;;;;;4.22;2.15;;;11.60;99.90;;;;;;4975705;28;20027;-85
2021/05/29 01:53:05;;;;;;;2.72;2.00;;;11.50;99.90;;;;;;4962931;28;20027;-85
2021/05/29 01:55:32;;;;;;;3.58;2.00;;;11.50;99.90;;;;;;4976919;28;20035;-85
2021/05/29 01:57:59;;;;;;;2.53;1.90;;;11.40;99.90;;;;;;4976563;28;20042;-85
2021/05/29 02:00:27;;;;;;;3.25;1.77;;;11.40;99.90;;;;;;4976321;28;20039;-84
2021/05/29 02:02:54;;;;;;;3.60;1.90;;;11.40;99.90;;;;;;4971889;28;20500;-83
2021/05/29 02:05:25;;;;;;;4.72;2.00;;;11.30;99.90;;;;;;4976654;28;20046;-84
2021/05/29 02:07:51;;;;;;;3.33;1.77;;;11.30;99.90;;;;;;4964717;28;20035;-84
2021/05/29 02:10:23;;;;;;;3.03;2.08;;;11.20;99.90;;;;;;4959182;28;20030;-85
2021/05/29 02:12:51;;;;;;;4.30;1.95;;;11.10;99.90;;;;;;4974266;28;20377;-84
2021/05/29 02:15:23;;;;;;;3.40;1.85;;;11.10;99.90;;;;;;4975341;28;20432;-86
2021/05/29 02:17:52;;;;;;;3.70;2.05;;;11.00;99.90;;;;;;4965118;28;20035;-85
2021/05/29 02:20:27;;;;;;;3.33;2.00;;;10.90;99.90;;;;;;4959010;28;20031;-85
2021/05/29 02:22:53;;;;;;;2.60;1.80;;;10.90;99.90;;;;;;4975394;28;20046;-85
2021/05/29 02:25:18;;;;;;;4.45;2.10;;;10.90;99.90;;;;;;4976677;28;20039;-86
2021/05/29 02:27:44;;;;;;;3.45;1.55;;;10.80;99.90;;;;;;4976538;28;20037;-86
2021/05/29 02:30:10;;;;;;;3.47;2.00;;;10.80;99.90;;;;;;4978000;28;20034;-84
2021/05/29 02:32:36;;;;;;;2.80;1.80;;;10.80;99.90;;;;;;4976356;28;20031;-84
2021/05/29 02:35:02;;;;;;;3.70;1.70;;;10.70;99.90;;;;;;4962746;28;20039;-85
2021/05/29 02:37:27;;;;;;;3.45;2.00;;;10.70;99.90;;;;;;4976335;28;20038;-85
2021/05/29 02:39:53;;;;;;;3.75;1.77;;;10.80;99.90;;;;;;4969767;28;20114;-85
2021/05/29 02:42:19;;;;;;;3.15;1.95;;;10.80;99.90;;;;;;4960286;28;20039;-86
2021/05/29 02:44:45;;;;;;;3.30;1.65;;;10.80;99.90;;;;;;4972939;28;20388;-85
2021/05/29 02:47:11;;;;;;;3.03;1.80;;;10.80;99.90;;;;;;4976324;28;20503;-85
2021/05/29 02:49:36;;;;;;;2.83;1.80;;;10.80;99.90;;;;;;4958612;28;20118;-86
2021/05/29 02:52:02;;;;;;;2.03;1.50;;;10.80;99.90;;;;;;4959151;28;20151;-87
2021/05/29 02:54:28;;;;;;;2.58;1.65;;;10.70;99.90;;;;;;4978477;28;20539;-86
2021/05/29 02:56:53;;;;;;;3.38;2.08;;;10.70;99.90;;;;;;4974745;28;20031;-87
2021/05/29 02:59:19;;;;;;;2.83;1.67;;;10.70;99.90;;;;;;4974752;28;20037;-86
2021/05/29 03:01:44;;;;;;;3.55;2.00;;;10.70;99.90;;;;;;4974544;28;20531;-87
2021/05/29 03:04:10;;;;;;;3.03;1.77;;;10.70;99.90;;;;;;4960648;28;20074;-86
2021/05/29 03:06:36;;;;;;;3.22;1.73;;;10.70;99.90;;;;;;4973434;28;20027;-85
2021/05/29 03:09:03;;;;;;;2.75;1.83;;;10.60;99.90;;;;;;4958474;28;20035;-86
2021/05/29 03:11:39;;;;;;;5.22;2.30;;;10.60;99.90;;;;;;4966166;28;20038;-86
2021/05/29 03:14:05;;;;;;;2.88;1.90;;;10.60;99.90;;;;;;4970141;28;20038;-87
2021/05/29 03:16:30;;;;;;;3.42;1.90;;;10.60;99.90;;;;;;4957873;28;20042;-87
2021/05/29 03:18:56;;;;;;;3.00;1.92;;;10.50;99.90;;;;;;4975394;28;20042;-87
2021/05/29 03:21:22;;;;;;;5.10;2.17;;;10.50;99.90;;;;;;4974952;28;20093;-87
2021/05/29 03:23:47;;;;;;;4.03;2.08;;;10.50;99.90;;;;;;4963063;28;20086;-87
2021/05/29 03:26:13;;;;;;;3.13;2.20;;;10.50;99.90;;;;;;4957456;28;20037;-86
2021/05/29 03:28:39;;;;;;;3.47;2.38;;;10.50;99.90;;;;;;4958908;28;20027;-86
2021/05/29 03:31:04;;;;;;;4.47;2.40;;;10.50;99.90;;;;;;4975102;28;20039;-86
2021/05/29 03:33:30;;;;;;;4.50;2.30;;;10.40;99.90;;;;;;4974699;28;20042;-87
2021/05/29 03:35:56;;;;;;;4.25;2.58;;;10.40;99.90;;;;;;4975275;28;20485;-87
2021/05/29 03:38:21;;;;;;;4.40;2.97;;;10.40;99.90;;;;;;4974860;28;20552;-87
2021/05/29 03:40:47;;;;;;;3.70;2.47;;;10.30;99.90;;;;;;4959805;28;20046;-87
2021/05/29 03:43:12;;;;;;;3.92;2.90;;;10.40;99.90;;;;;;4974608;28;20031;-86
2021/05/29 03:45:38;;;;;;;6.10;3.33;;;10.30;99.90;;;;;;4974389;28;20376;-86
2021/05/29 03:48:04;;;;;;;4.07;2.47;;;10.30;99.90;;;;;;4974777;28;20038;-86
2021/05/29 03:50:30;;;;;;;5.20;3.30;;;10.30;99.90;;;;;;4957040;28;20074;-86
2021/05/29 03:52:56;;;;;;;6.68;3.30;;;10.30;99.90;;;;;;4974855;28;20556;-87
2021/05/29 03:55:23;;;;;;;5.47;3.10;;;10.30;99.90;;;;;;4963710;28;20042;-86
2021/05/29 03:57:51;;;;;;;4.30;2.80;;;10.30;99.90;;;;;;4963261;28;20488;-87
2021/05/29 04:00:19;;;;;;;4.65;2.85;;;10.20;99.90;;;;;;4957344;28;20038;-87
2021/05/29 04:02:45;;;;;;;4.75;3.00;;;10.20;99.90;;;;;;4973711;28;20162;-87
2021/05/29 04:05:12;;;;;;;4.90;3.13;;;10.20;99.90;;;;;;4938315;29;20031;-87
2021/05/29 04:07:39;;;;;;;4.32;3.13;;;10.20;99.90;;;;;;4955337;29;20043;-87
2021/05/29 04:10:06;;;;;;;4.05;3.13;;;10.30;99.90;;;;;;4938463;29;20136;-88
2021/05/29 04:12:32;;;;;;;4.25;2.88;;;10.30;99.90;;;;;;4921960;29;20058;-86
2021/05/29 04:14:58;;;;;;;5.13;3.13;;;10.30;99.90;;;;;;4955335;29;20071;-87
2021/05/29 04:17:25;;;;;;;5.30;3.17;;;10.30;99.90;;;;;;4937840;29;20090;-86
2021/05/29 04:19:50;;;;;;;6.38;3.40;;;10.20;99.90;;;;;;4955166;29;20035;-86
2021/05/29 04:22:16;;;;;;;5.13;3.20;;;10.30;99.90;;;;;;4954794;29;20445;-87
2021/05/29 04:24:41;;;;;;;4.72;3.15;;;10.30;99.90;;;;;;4954878;29;20035;-86
2021/05/29 04:27:07;;;;;;;5.95;2.95;;;10.30;99.90;;;;;;4937030;29;20036;-86
2021/05/29 04:29:33;;;;;;;5.97;3.40;;;10.40;99.90;;;;;;4937507;29;20071;-85
2021/05/29 04:32:00;;;;;;;5.18;3.30;;;10.40;99.90;;;;;;4937626;29;20050;-85
2021/05/29 04:34:25;;;;;;;5.20;3.00;;;10.40;99.90;;;;;;4937508;29;20425;-84
2021/05/29 04:36:51;;;;;;;4.88;3.13;;;10.50;99.90;;;;;;4954114;28;20031;-87
2021/05/29 04:39:16;;;;;;;4.65;3.13;;;10.50;99.90;;;;;;4937658;29;20537;-86
2021/05/29 04:41:42;;;;;;;5.53;3.22;;;10.60;99.90;;;;;;4937518;29;20040;-86
2021/05/29 04:44:08;;;;;;;6.50;3.08;;;10.70;99.90;;;;;;4937605;29;20489;-86
2021/05/29 04:46:38;;;;;;;6.07;3.30;;;10.70;99.90;;;;;;4953493;29;20502;-85
2021/05/29 04:49:05;;;;;;;5.88;3.50;;;10.70;99.90;;;;;;4937765;29;20035;-85
2021/05/29 04:51:30;;;;;;;5.60;3.20;;;10.80;99.90;;;;;;4937177;29;20367;-86
2021/05/29 04:53:56;;;;;;;5.60;3.55;;;10.80;99.90;;;;;;4954432;29;20112;-85
2021/05/29 04:56:21;;;;;;;7.00;3.70;;;10.90;99.90;;;;;;4937252;29;20043;-86
2021/05/29 04:58:47;;;;;;;6.78;3.20;;;10.90;99.90;;;;;;4937410;29;20027;-86
2021/05/29 05:01:13;;;;;;;6.40;3.83;;;11.00;99.90;;;;;;4954518;29;20126;-86
2021/05/29 05:03:39;;;;;;;5.90;3.78;;;11.00;99.90;;;;;;4944944;28;20422;-87
2021/05/29 05:06:05;;;;;;;5.65;3.45;;;11.10;99.90;;;;;;4973783;28;20038;-86
2021/05/29 05:08:31;;;;;;;6.45;3.40;;;11.10;99.90;;;;;;4956471;28;20401;-85
2021/05/29 05:10:57;;;;;;;5.88;3.58;;;11.20;99.90;;;;;;4973978;28;20034;-87
2021/05/29 05:13:24;;;;;;;5.55;3.42;;;11.20;99.90;;;;;;4958999;28;20086;-86
2021/05/29 05:15:53;;;;;;;5.63;3.92;;;11.30;99.90;;;;;;4991315;28;20392;-86
2021/05/29 05:18:21;;;;;;;6.95;3.83;;;11.40;99.90;;;;;;4992069;28;20492;-86
2021/05/29 05:20:47;;;;;;;7.70;4.57;;;11.50;99.90;;;;;;4987360;28;20039;-87
2021/05/29 05:23:13;;;;;;;7.28;4.57;;;11.50;99.90;;;;;;4961024;28;20035;-86
2021/05/29 05:25:39;;;;;;;8.10;4.90;;;11.50;99.90;;;;;;4963882;28;20035;-85
2021/05/29 05:28:04;;;;;;;8.63;5.53;;;11.60;99.90;;;;;;4971980;28;20042;-85
2021/05/29 05:30:30;;;;;;;7.35;5.40;;;11.70;99.90;;;;;;4975895;28;20027;-85
2021/05/29 05:33:02;;;;;;;9.07;5.95;;;11.70;99.90;;;;;;4969155;28;20083;-85
2021/05/29 05:35:28;;;;;;;8.30;5.68;;;11.80;99.90;;;;;;4956458;28;20061;-85
2021/05/29 05:37:53;;;;;;;7.10;5.07;;;11.80;99.90;;;;;;4991242;28;20457;-86
2021/05/29 05:40:19;;;;;;;6.28;4.82;;;11.90;99.90;;;;;;4975610;28;20026;-85
2021/05/29 05:42:45;;;;;;;10.73;7.57;;;12.00;99.90;;;;;;4970368;28;20082;-86
2021/05/29 05:45:11;;;;;;;9.02;7.45;;;12.00;99.90;;;;;;4956361;28;20027;-85
2021/05/29 05:47:36;;;;;;;9.48;6.25;;;12.10;99.90;;;;;;4964981;28;20478;-86
2021/05/29 05:50:04;;;;;;;8.38;6.15;;;12.20;99.90;;;;;;4962498;28;20031;-86
2021/05/29 05:52:29;;;;;;;9.68;5.72;;;12.20;99.90;;;;;;4962616;28;20084;-84
2021/05/29 05:54:55;;;;;;;8.40;5.60;;;12.30;99.90;;;;;;4989601;28;20035;-86
2021/05/29 05:57:22;;;;;;;9.18;5.88;;;12.40;99.90;;;;;;4961335;28;20046;-86
2021/05/29 05:59:47;;;;;;;7.90;5.97;;;12.50;99.90;;;;;;4976833;28;20122;-85
2021/05/29 06:02:14;;;;;;;7.90;5.15;;;12.60;99.90;;;;;;4979477;28;20077;-85
2021/05/29 06:04:40;;;;;;;7.97;5.28;;;12.60;99.90;;;;;;4992495;28;20564;-85
2021/05/29 06:07:06;;;;;;;10.23;6.45;;;12.70;99.90;;;;;;4975872;28;20113;-86
2021/05/29 06:09:33;;;;;;;9.05;6.60;;;12.70;99.90;;;;;;4964968;28;20115;-87
2021/05/29 06:11:59;;;;;;;10.73;7.10;;;12.70;99.90;;;;;;4959132;28;20039;-86
2021/05/29 06:20:01;;;;;;;8.18;5.70;;;12.80;99.90;;;;;;4977985;28;20045;-87
2021/05/29 06:22:26;;;;;;;8.38;5.82;;;12.80;99.90;;;;;;4975979;28;20145;-86
2021/05/29 06:24:52;;;;;;;6.47;4.32;;;12.90;99.90;;;;;;4977911;28;20420;-87
2021/05/29 06:27:18;;;;;;;8.07;4.95;;;13.00;99.90;;;;;;4975211;28;20061;-87
2021/05/29 06:29:43;;;;;;;8.55;5.82;;;13.00;99.90;;;;;;4965959;28;20062;-87
2021/05/29 06:32:12;;;;;;;6.15;5.07;;;13.10;99.90;;;;;;4976874;28;20413;-86
2021/05/29 06:34:38;;;;;;;8.90;5.50;;;13.10;99.90;;;;;;4959343;28;20031;-88
2021/05/29 06:37:03;;;;;;;8.27;4.97;;;13.10;99.90;;;;;;4976421;28;20416;-87
2021/05/29 06:39:29;;;;;;;7.80;5.13;;;13.20;99.90;;;;;;4968102;28;20461;-88
2021/05/29 06:41:55;;;;;;;6.97;5.30;;;13.20;99.90;;;;;;4959630;28;20049;-89
2021/05/29 06:44:20;;;;;;;8.13;5.72;;;13.30;99.90;;;;;;4959553;28;20034;-87
2021/05/29 06:46:46;;;;;;;8.35;6.30;;;13.30;99.90;;;;;;4976944;28;20046;-87
2021/05/29 06:49:13;;;;;;;7.03;5.47;;;13.30;99.90;;;;;;4976455;28;20039;-86
2021/05/29 06:51:54;;;;;;;7.70;5.38;;;13.40;99.90;;;;;;4975154;28;20035;-87
2021/05/29 06:54:40;;;;;;;7.57;5.82;;;13.40;99.90;;;;;;4958402;28;20128;-86
2021/05/29 06:59:50;;;;;;;7.38;5.25;;;13.40;99.90;;;;;;4976328;28;20130;-87
2021/05/29 07:02:16;;;;;;;7.05;5.25;;;13.40;99.90;;;;;;4971887;28;20139;-86
2021/05/29 07:04:42;;;;;;;7.63;5.60;;;13.50;99.90;;;;;;4958763;28;20047;-87
2021/05/29 07:07:07;;;;;;;7.40;6.25;;;13.50;99.90;;;;;;4963594;28;20532;-86
2021/05/29 07:09:33;;;;;;;7.85;5.20;;;13.60;99.90;;;;;;4976159;28;20031;-87
2021/05/29 07:11:59;;;;;;;7.53;5.50;;;13.60;99.90;;;;;;4975771;28;20384;-88
2021/05/29 07:14:26;;;;;;;7.90;5.72;;;13.70;99.90;;;;;;4974858;28;20085;-88
2021/05/29 07:16:53;;;;;;;7.28;5.38;;;13.70;99.90;;;;;;4975426;28;20030;-88
2021/05/29 07:19:19;;;;;;;7.28;5.50;;;13.80;99.90;;;;;;4991438;28;20047;-85
2021/05/29 07:21:46;;;;;;;9.05;5.95;;;13.80;99.90;;;;;;4975065;28;20399;-87
2021/05/29 07:24:12;;;;;;;9.50;6.38;;;13.90;99.90;;;;;;4983068;28;20018;-86
2021/05/29 07:26:39;;;;;;;9.23;6.13;;;13.90;99.90;;;;;;4996184;28;20102;-87
2021/05/29 07:29:04;;;;;;;9.85;6.22;;;14.00;99.90;;;;;;4994573;28;20035;-86
2021/05/29 07:31:30;;;;;;;18.75;11.43;;;14.00;99.90;;;;;;4994411;28;20042;-85
2021/05/29 07:33:56;;;;;;;14.65;11.65;;;14.00;99.90;;;;;;4983793;28;20038;-86
2021/05/29 07:36:23;;;;;;;13.13;9.98;;;14.10;99.90;;;;;;4977870;28;20054;-87
2021/05/29 07:38:49;;;;;;;13.20;9.48;;;14.20;99.90;;;;;;4995054;28;20035;-87
2021/05/29 07:41:15;;;;;;;11.23;8.23;;;14.20;99.90;;;;;;4981279;28;20035;-87
2021/05/29 07:43:41;;;;;;;11.10;8.30;;;14.30;99.90;;;;;;4990466;28;20106;-87
2021/05/29 07:46:07;;;;;;;10.88;7.43;;;14.40;99.90;;;;;;4998254;28;20027;-87
2021/05/29 07:48:33;;;;;;;10.75;9.00;;;14.40;99.90;;;;;;4982134;28;20558;-88
2021/05/29 07:51:03;;;;;;;12.77;9.27;;;14.40;99.90;;;;;;4998592;28;20098;-87
2021/05/29 07:53:35;;;;;;;10.82;8.02;;;14.50;99.90;;;;;;4976531;28;20097;-87
2021/05/29 07:56:04;;;;;;;10.55;8.13;;;14.50;99.90;;;;;;4968671;28;20070;-86
2021/05/29 07:58:29;;;;;;;11.30;7.68;;;14.60;99.90;;;;;;4964392;28;20041;-86
2021/05/29 08:00:55;;;;;;;9.98;6.93;;;14.70;99.90;;;;;;4977289;28;20039;-90
2021/05/29 08:03:23;;;;;;;10.10;7.32;;;14.80;99.90;;;;;;4977690;28;20448;-88
2021/05/29 08:05:51;;;;;;;10.52;7.03;;;15.00;99.90;;;;;;4980150;28;20030;-85
2021/05/29 08:08:20;;;;;;;8.60;6.68;;;15.00;99.90;;;;;;4959940;28;20034;-85
2021/05/29 08:10:48;;;;;;;7.80;6.30;;;15.20;99.90;;;;;;4968230;28;20031;-82
2021/05/29 08:13:14;;;;;;;9.85;6.70;;;15.20;99.90;;;;;;4957896;28;20473;-82
2021/05/29 08:15:40;;;;;;;8.63;6.53;;;15.30;99.90;;;;;;4964064;28;20122;-84
2021/05/29 08:18:07;;;;;;;9.10;6.78;;;15.20;99.90;;;;;;4960185;28;20030;-85
2021/05/29 08:20:32;;;;;;;9.50;7.00;;;15.30;99.90;;;;;;4957213;28;20046;-83
2021/05/29 08:22:58;;;;;;;10.25;7.20;;;15.30;99.90;;;;;;4953139;28;20057;-85
2021/05/29 08:25:23;;;;;;;10.77;6.95;;;15.30;99.90;;;;;;4952592;28;20041;-86
2021/05/29 08:27:49;;;;;;;7.82;5.82;;;15.30;99.90;;;;;;4971641;28;20035;-87
2021/05/29 08:30:15;;;;;;;7.72;5.82;;;15.40;99.90;;;;;;4965521;28;20062;-83
2021/05/29 08:32:40;;;;;;;7.03;5.25;;;15.50;99.90;;;;;;4967711;28;20014;-86
2021/05/29 08:35:08;;;;;;;7.80;5.15;;;15.60;99.90;;;;;;4962726;28;20097;-85
2021/05/29 08:37:34;;;;;;;8.15;4.97;;;15.80;99.90;;;;;;4958194;28;20121;-88
2021/05/29 08:39:59;;;;;;;7.93;5.30;;;15.90;99.90;;;;;;4957035;28;20235;-86
2021/05/29 08:42:25;;;;;;;7.35;4.60;;;16.10;99.90;;;;;;4959204;28;20047;-87
2021/05/29 08:44:51;;;;;;;7.22;4.78;;;16.20;99.90;;;;;;4975999;28;20109;-87
2021/05/29 08:47:20;;;;;;;5.88;4.22;;;16.30;99.90;;;;;;4964109;28;20038;-86
2021/05/29 08:49:46;;;;;;;5.80;4.00;;;16.50;99.90;;;;;;4981538;28;20611;-86
2021/05/29 08:52:12;;;;;;;5.28;3.90;;;16.70;99.90;;;;;;4976901;28;20034;-88
2021/05/29 08:54:37;;;;;;;7.60;4.70;;;17.00;99.90;;;;;;4937335;29;20043;-86
2021/05/29 08:57:04;;;;;;;7.15;4.97;;;17.20;99.90;;;;;;4967311;28;20494;-83
2021/05/29 08:59:29;;;;;;;6.45;4.35;;;17.20;99.90;;;;;;4960930;28;20069;-86
2021/05/29 09:02:02;;;;;;;7.32;5.15;;;17.20;99.90;;;;;;4979561;28;20503;-88
2021/05/29 09:04:27;;;;;;;6.77;4.60;;;17.40;99.90;;;;;;4972801;28;20055;-86
2021/05/29 09:06:53;;;;;;;7.05;5.00;;;17.60;99.90;;;;;;4957476;28;20057;-85
2021/05/29 09:09:19;;;;;;;6.22;4.60;;;17.70;99.90;;;;;;4962347;28;20077;-86
2021/05/29 09:11:53;;;;;;;6.93;4.05;;;17.80;99.90;;;;;;4978004;28;20133;-85
2021/05/29 09:14:22;;;;;;;5.10;3.92;;;18.00;99.90;;;;;;4979406;28;20113;-87
2021/05/29 09:17:14;;;;;;;6.78;4.40;;;18.10;99.90;;;;;;4976067;28;20034;-87
2021/05/29 09:19:58;;;;;;;6.03;4.20;;;18.40;99.90;;;;;;4969093;28;20102;-85
2021/05/29 09:22:29;;;;;;;5.93;3.83;;;18.50;99.90;;;;;;4954320;28;20062;-87
2021/05/29 09:24:59;;;;;;;7.68;4.70;;;18.70;99.90;;;;;;4973639;28;20126;-89
2021/05/29 09:27:25;;;;;;;6.80;4.68;;;18.70;99.90;;;;;;4968027;28;20117;-87
2021/05/29 09:29:51;;;;;;;8.70;5.22;;;18.60;99.90;;;;;;4957518;28;20483;-86
2021/05/29 09:32:16;;;;;;;5.10;4.30;;;18.50;99.90;;;;;;4968120;28;20084;-87
2021/05/29 09:34:47;;;;;;;6.93;3.92;;;18.40;99.90;;;;;;4957267;28;20054;-86
2021/05/29 09:37:29;;;;;;;6.40;4.20;;;18.50;99.90;;;;;;4967714;28;20554;-86
2021/05/29 09:39:57;;;;;;;6.70;4.07;;;18.80;99.90;;;;;;4974494;28;20042;-87
2021/05/29 09:42:29;;;;;;;6.53;4.68;;;19.00;99.90;;;;;;4957820;28;20133;-89
2021/05/29 09:44:55;;;;;;;5.05;3.55;;;19.30;99.70;;;;;;4955522;28;20065;-87
2021/05/29 09:47:24;;;;;;;6.47;4.65;;;19.30;99.80;;;;;;4962591;28;20062;-87
2021/05/29 09:49:55;;;;;;;6.85;4.25;;;19.30;99.50;;;;;;4962476;28;20556;-90
2021/05/29 09:52:37;;;;;;;5.85;4.47;;;19.40;99.40;;;;;;4958237;28;20054;-86
2021/05/29 09:55:10;;;;;;;6.18;3.67;;;19.30;99.10;;;;;;4970639;28;20049;-85
2021/05/29 09:57:56;;;;;;;6.15;4.80;;;19.20;99.40;;;;;;4958168;28;20034;-87
2021/05/29 10:00:23;;;;;;;5.20;3.80;;;19.50;99.10;;;;;;4976569;28;20118;-86
2021/05/29 10:03:02;;;;;;;5.05;3.50;;;19.50;99.10;;;;;;4974947;28;20082;-86
2021/05/29 10:05:30;;;;;;;5.05;3.42;;;19.80;99.10;;;;;;4966036;28;20039;-86
2021/05/29 10:07:56;;;;;;;5.43;3.80;;;20.00;99.10;;;;;;4971508;28;20121;-84
2021/05/29 10:10:22;;;;;;;6.05;4.10;;;20.40;98.60;;;;;;4958314;28;20122;-85
2021/05/29 10:12:47;;;;;;;7.88;4.65;;;21.10;98.00;;;;;;4957038;28;20035;-86
2021/05/29 10:15:13;;;;;;;5.32;3.70;;;21.30;97.00;;;;;;4965918;28;20129;-89
2021/05/29 10:17:39;;;;;;;6.95;4.55;;;21.10;97.10;;;;;;4983867;23;20050;-82
2021/05/29 10:20:07;;;;;;;4.55;3.38;;;20.80;97.10;;;;;;4966747;28;20512;-87
2021/05/29 10:22:33;;;;;;;4.25;3.03;;;21.00;97.30;;;;;;4976951;28;20050;-88
2021/05/29 10:25:00;;;;;;;5.47;3.50;;;22.00;97.00;;;;;;4960899;28;20104;-90
2021/05/29 10:27:29;;;;;;;6.18;3.80;;;22.80;95.60;;;;;;4957424;28;20035;-87
2021/05/29 10:29:59;;;;;;;5.55;3.53;;;23.20;94.90;;;;;;4976083;28;20484;-88
2021/05/29 10:32:24;;;;;;;3.67;2.90;;;23.70;94.40;;;;;;4963157;28;20111;-85
2021/05/29 10:35:08;;;;;;;5.13;3.00;;;24.40;94.00;;;;;;4981121;28;20026;-88
2021/05/29 10:38:08;;;;;;;4.30;2.40;;;25.10;93.10;;;;;;4982834;28;20061;-85
2021/05/29 10:40:48;;;;;;;2.65;1.92;;;25.60;92.30;;;;;;4937236;29;20028;-88
2021/05/29 10:43:19;;;;;;;4.82;2.75;;;25.30;92.30;;;;;;4975509;28;20045;-90
2021/05/29 10:45:51;;;;;;;3.58;2.38;;;24.70;91.70;;;;;;4967477;28;20030;-83
2021/05/29 10:48:25;;;;;;;4.30;2.70;;;24.00;91.90;;;;;;5010420;23;20034;-81
2021/05/29 10:50:57;;;;;;;5.38;2.78;;;23.20;91.90;;;;;;4986779;28;20050;-88
2021/05/29 10:53:55;;;;;;;2.83;2.43;;;22.50;92.40;;;;;;4979654;28;20046;-89
2021/05/29 10:56:21;;;;;;;3.10;2.50;;;23.00;92.30;;;;;;4983286;28;20062;-84
2021/05/29 10:58:59;;;;;;;3.17;2.20;;;23.90;91.80;;;;;;5002064;28;20058;-84
2021/05/29 11:01:35;;;;;;;4.43;2.25;;;24.80;90.80;;;;;;4981520;28;20038;-87
2021/05/29 11:04:20;;;;;;;3.97;2.45;;;25.10;89.50;;;;;;4978819;28;20520;-87
2021/05/29 11:06:57;;;;;;;3.03;2.38;;;24.70;89.30;;;;;;4978665;28;20052;-87
2021/05/29 11:09:34;;;;;;;4.13;2.30;;;24.40;89.50;;;;;;4972035;28;20046;-87
2021/05/29 11:12:08;;;;;;;3.45;2.28;;;24.60;88.70;;;;;;4976357;28;20487;-88
2021/05/29 11:14:49;;;;;;;3.45;2.10;;;25.20;87.80;;;;;;4974203;28;20047;-86
2021/05/29 11:17:17;;;;;;;3.17;2.10;;;25.60;86.00;;;;;;4969068;28;20042;-86
2021/05/29 11:19:59;;;;;;;3.83;2.30;;;25.70;85.80;;;;;;4995460;28;20042;-85
2021/05/29 11:22:25;;;;;;;3.00;2.10;;;26.30;84.70;;;;;;4980544;28;20078;-85
2021/05/29 11:24:53;;;;;;;3.25;2.00;;;26.80;82.00;;;;;;4978888;28;20038;-85
2021/05/29 11:27:20;;;;;;;3.03;2.17;;;27.20;81.50;;;;;;4978962;28;20558;-86
2021/05/29 11:30:03;;;;;;;4.00;2.40;;;27.30;80.10;;;;;;4986837;28;20025;-87
2021/05/29 11:35:29;;;;;;;3.63;2.05;;;25.70;80.20;;;;;;5001928;28;20073;-81
2021/05/29 11:38:08;;;;;;;5.45;2.90;;;24.90;81.20;;;;;;4983286;28;20069;-81
2021/05/29 11:40:46;;;;;;;4.13;2.60;;;24.80;82.00;;;;;;4982129;28;20080;-87
2021/05/29 11:43:14;;;;;;;5.20;2.10;;;25.50;81.40;;;;;;4995456;28;20050;-84
2021/05/29 11:45:41;;;;;;;3.92;2.08;;;25.80;82.20;;;;;;4978013;28;20027;-83
2021/05/29 11:48:07;;;;;;;2.88;2.10;;;26.30;80.60;;;;;;4998468;28;20082;-87
2021/05/29 11:50:34;;;;;;;3.40;2.30;;;26.80;79.80;;;;;;4996267;28;20042;-83
2021/05/29 11:53:00;;;;;;;4.95;2.35;;;27.20;78.40;;;;;;4984737;28;20688;-82
2021/05/29 11:55:26;;;;;;;3.80;2.30;;;27.50;76.40;;;;;;5000998;28;20026;-82
2021/05/29 11:58:01;;;;;;;4.03;2.28;;;27.60;74.70;;;;;;4985005;28;20026;-82
2021/05/29 12:00:28;;;;;;;4.03;2.08;;;27.90;74.00;;;;;;5094259;23;20016;-85
2021/05/29 12:02:54;;;;;;;4.00;1.80;;;27.90;72.50;;;;;;4977672;28;20054;-87
2021/05/29 12:05:21;;;;;;;2.58;1.65;;;27.10;72.20;;;;;;4991666;28;20038;-87
2021/05/29 12:08:01;;;;;;;3.05;1.70;;;26.20;73.50;;;;;;4990644;28;20031;-87
2021/05/29 12:10:46;;;;;;;3.03;1.88;;;26.40;74.80;;;;;;4997904;28;20034;-86
2021/05/29 12:13:21;;;;;;;2.60;1.77;;;27.00;74.30;;;;;;4995763;28;20027;-84
2021/05/29 12:15:53;;;;;;;2.88;1.90;;;27.70;72.50;;;;;;4986584;28;20173;-80
2021/05/29 12:18:19;;;;;;;2.72;1.75;;;28.10;71.20;;;;;;4982666;28;20151;-80
2021/05/29 12:20:56;;;;;;;2.97;1.65;;;28.40;70.80;;;;;;5001089;23;20515;-84
2021/05/29 12:23:22;;;;;;;2.47;1.50;;;28.20;70.00;;;;;;4987571;28;20034;-80
2021/05/29 12:25:47;;;;;;;3.35;1.55;;;27.50;70.50;;;;;;4984281;28;20054;-83
2021/05/29 12:28:14;;;;;;;2.45;1.80;;;26.90;71.50;;;;;;4986720;28;20046;-82
2021/05/29 12:30:40;;;;;;;2.38;1.60;;;26.10;72.00;;;;;;4983087;28;20469;-83
2021/05/29 12:33:23;;;;;;;2.42;1.40;;;25.60;73.00;;;;;;4995230;28;20069;-83
2021/05/29 12:36:03;;;;;;;3.83;1.50;;;25.60;73.90;;;;;;5048566;23;20511;-83
2021/05/29 12:38:29;;;;;;;2.85;1.50;;;26.60;73.60;;;;;;5026796;28;20030;-81
2021/05/29 12:40:56;;;;;;;2.63;1.50;;;27.20;72.30;;;;;;5026813;28;20045;-81
2021/05/29 12:43:21;;;;;;;3.47;2.00;;;26.80;71.40;;;;;;5025903;28;20034;-81
2021/05/29 12:45:47;;;;;;;3.63;1.90;;;26.30;72.80;;;;;;5018960;28;20038;-83
2021/05/29 12:48:14;;;;;;;2.72;1.50;;;26.60;72.10;;;;;;5017901;28;20032;-82
2021/05/29 12:51:00;;;;;;;2.55;1.80;;;27.10;71.50;;;;;;5100247;23;20068;-83
2021/05/29 12:53:28;;;;;;;3.17;1.80;;;27.70;69.20;;;;;;5068102;23;20025;-82
2021/05/29 12:56:17;;;;;;;2.95;1.70;;;27.20;69.10;;;;;;4939933;29;20047;-82
2021/05/29 12:59:03;;;;;;;2.65;1.45;;;26.60;70.50;;;;;;4961642;28;20031;-82
2021/05/29 13:01:38;;;;;;;1.80;1.42;;;26.30;70.00;;;;;;4973302;28;20106;-84
2021/05/29 13:09:49;;;;;;;2.75;1.33;;;28.00;67.50;;;;;;4977931;28;20125;-87